Time;durP1;ratioP1;P1;durP2;ratioP2;P2;SDS_P1;SDS_P2;PMS_P1;PMS_P2;Temp;Humidity;BMP_temperature;BMP_pressure;BME280_temperature;BME280_humidity;BME280_pressure;Samples;Min_cycle;Max_cycle;Signal;HPM_P1;HPM_P2
2021/04/20 00:02:26;;;;;;;43.33;31.05;;;;;;;;;;5094313;28;20211;-61
2021/04/20 00:04:53;;;;;;;41.17;28.67;;;;;;;;;;5095098;28;20228;-61
2021/04/20 00:07:19;;;;;;;40.00;29.77;;;;;;;;;;5104701;28;20215;-61
2021/04/20 00:09:46;;;;;;;39.20;30.20;;;;;;;;;;5107015;28;20220;-61
2021/04/20 00:12:13;;;;;;;41.83;30.95;;;;;;;;;;5108352;28;20200;-61
2021/04/20 00:14:41;;;;;;;42.15;30.23;;;;;;;;;;5109674;28;20204;-61
2021/04/20 00:17:07;;;;;;;39.40;29.90;;;;;;;;;;5109098;28;20257;-61
2021/04/20 00:19:34;;;;;;;35.10;27.30;;;;;;;;;;5107068;28;20192;-61
2021/04/20 00:22:01;;;;;;;48.20;33.05;;;;;;;;;;5103594;28;20204;-61
2021/04/20 00:24:28;;;;;;;36.97;28.40;;;;;;;;;;5106842;28;20574;-63
2021/04/20 00:26:54;;;;;;;40.40;28.90;;;;;;;;;;5104629;28;20579;-61
2021/04/20 00:29:21;;;;;;;35.92;28.83;;;;;;;;;;5104009;28;20213;-62
2021/04/20 00:31:49;;;;;;;40.08;29.38;;;;;;;;;;5103118;28;20597;-61
2021/04/20 00:34:16;;;;;;;41.67;30.73;;;;;;;;;;5103821;28;20208;-62
2021/04/20 00:36:42;;;;;;;38.53;29.58;;;;;;;;;;5103546;28;20216;-62
2021/04/20 00:39:09;;;;;;;36.88;27.70;;;;;;;;;;5104131;28;20217;-61
2021/04/20 00:41:36;;;;;;;40.65;28.27;;;;;;;;;;5103526;28;20201;-60
2021/04/20 00:44:03;;;;;;;39.78;28.95;;;;;;;;;;5099057;28;20204;-61
2021/04/20 00:46:29;;;;;;;46.30;30.02;;;;;;;;;;5099349;28;20216;-61
2021/04/20 00:48:57;;;;;;;40.38;29.75;;;;;;;;;;5098939;28;20213;-61
2021/04/20 00:51:24;;;;;;;37.97;29.13;;;;;;;;;;5097969;28;20211;-61
2021/04/20 00:53:51;;;;;;;39.70;29.98;;;;;;;;;;5097503;28;20579;-61
2021/04/20 00:56:19;;;;;;;39.58;30.10;;;;;;;;;;5097632;28;20593;-60
2021/04/20 00:58:45;;;;;;;37.17;28.48;;;;;;;;;;5098991;28;20200;-61
2021/04/20 01:01:13;;;;;;;40.83;30.92;;;;;;;;;;5098905;28;20197;-62
2021/04/20 01:03:40;;;;;;;39.85;30.73;;;;;;;;;;5097714;28;20245;-62
2021/04/20 01:06:08;;;;;;;40.80;30.58;;;;;;;;;;5097685;28;20716;-61
2021/04/20 01:08:36;;;;;;;41.60;30.48;;;;;;;;;;5098311;28;20205;-61
2021/04/20 01:11:02;;;;;;;43.55;29.40;;;;;;;;;;5098428;28;20209;-61
2021/04/20 01:13:30;;;;;;;39.20;29.13;;;;;;;;;;5098209;28;20208;-62
2021/04/20 01:15:57;;;;;;;40.47;29.90;;;;;;;;;;5097700;28;20243;-61
2021/04/20 01:18:26;;;;;;;41.50;31.05;;;;;;;;;;5097482;28;20201;-61
2021/04/20 01:20:54;;;;;;;40.28;29.33;;;;;;;;;;5098213;28;20205;-62
2021/04/20 01:23:28;;;;;;;39.65;29.02;;;;;;;;;;5097897;28;20196;-61
2021/04/20 01:25:56;;;;;;;34.15;23.73;;;;;;;;;;5099042;28;20217;-62
2021/04/20 01:28:23;;;;;;;31.60;23.80;;;;;;;;;;5099468;28;20219;-62
2021/04/20 01:30:50;;;;;;;31.48;24.27;;;;;;;;;;5100060;28;20217;-62
2021/04/20 01:33:17;;;;;;;34.60;23.75;;;;;;;;;;5100141;28;20277;-60
2021/04/20 01:35:44;;;;;;;33.20;22.83;;;;;;;;;;5098267;28;20690;-61
2021/04/20 01:38:11;;;;;;;27.45;19.88;;;;;;;;;;5097606;28;20208;-62
2021/04/20 01:40:38;;;;;;;26.67;19.10;;;;;;;;;;5097419;28;20200;-61
2021/04/20 01:43:05;;;;;;;23.88;18.08;;;;;;;;;;5096963;28;20201;-61
2021/04/20 01:45:32;;;;;;;24.35;18.45;;;;;;;;;;5096928;28;20246;-61
2021/04/20 01:48:00;;;;;;;24.50;19.05;;;;;;;;;;5097451;28;20212;-61
2021/04/20 01:50:27;;;;;;;24.05;18.52;;;;;;;;;;5097086;28;20205;-60
2021/04/20 01:52:54;;;;;;;24.25;18.30;;;;;;;;;;5096885;28;20196;-61
2021/04/20 01:55:21;;;;;;;23.90;19.80;;;;;;;;;;5096809;28;20270;-61
2021/04/20 01:57:49;;;;;;;24.00;18.50;;;;;;;;;;5097073;28;20556;-62
2021/04/20 02:00:18;;;;;;;25.48;20.27;;;;;;;;;;5097531;28;20204;-61
2021/04/20 02:02:45;;;;;;;22.58;17.50;;;;;;;;;;5102532;28;20203;-61
2021/04/20 02:05:12;;;;;;;21.35;17.50;;;;;;;;;;5100740;28;20220;-63
2021/04/20 02:07:39;;;;;;;26.50;18.05;;;;;;;;;;5098965;28;20208;-62
2021/04/20 02:10:07;;;;;;;24.17;18.58;;;;;;;;;;5099390;28;20196;-61
2021/04/20 02:12:36;;;;;;;22.20;16.75;;;;;;;;;;5099601;28;20200;-62
2021/04/20 02:15:04;;;;;;;21.67;15.73;;;;;;;;;;5101301;28;20227;-62
2021/04/20 02:17:33;;;;;;;24.58;16.20;;;;;;;;;;5108614;28;20204;-61
2021/04/20 02:20:01;;;;;;;21.67;16.15;;;;;;;;;;5107154;28;20697;-61
2021/04/20 02:22:28;;;;;;;26.95;17.08;;;;;;;;;;5107671;28;20234;-62
2021/04/20 02:24:54;;;;;;;25.20;17.10;;;;;;;;;;5102707;28;20240;-62
2021/04/20 02:27:21;;;;;;;21.77;15.95;;;;;;;;;;5099205;28;20196;-62
2021/04/20 02:29:48;;;;;;;20.52;16.08;;;;;;;;;;5098341;28;20302;-61
2021/04/20 02:32:15;;;;;;;24.33;15.90;;;;;;;;;;5097734;28;20200;-61
2021/04/20 02:34:43;;;;;;;22.00;16.52;;;;;;;;;;5097961;28;20225;-61
2021/04/20 02:37:10;;;;;;;22.98;17.95;;;;;;;;;;5097925;28;20227;-61
2021/04/20 02:39:36;;;;;;;33.90;24.08;;;;;;;;;;5097004;28;20204;-62
2021/04/20 02:42:03;;;;;;;36.38;26.75;;;;;;;;;;5096310;28;20677;-60
2021/04/20 02:44:30;;;;;;;35.35;25.30;;;;;;;;;;5096771;28;20200;-60
2021/04/20 02:47:00;;;;;;;38.03;25.92;;;;;;;;;;5095678;28;20275;-61
2021/04/20 02:49:27;;;;;;;37.65;26.27;;;;;;;;;;5095762;28;20223;-61
2021/04/20 02:51:55;;;;;;;37.20;24.92;;;;;;;;;;5095273;28;20230;-61
2021/04/20 02:54:22;;;;;;;34.83;26.38;;;;;;;;;;5095274;28;20204;-60
2021/04/20 02:56:49;;;;;;;38.58;26.25;;;;;;;;;;5095312;28;20224;-62
2021/04/20 02:59:16;;;;;;;33.75;26.40;;;;;;;;;;5094906;28;20690;-61
2021/04/20 03:01:43;;;;;;;35.20;25.95;;;;;;;;;;5095197;28;20200;-62
2021/04/20 03:04:13;;;;;;;35.80;25.75;;;;;;;;;;5094734;28;20690;-61
2021/04/20 03:06:41;;;;;;;34.45;25.27;;;;;;;;;;5094944;28;20232;-62
2021/04/20 03:09:08;;;;;;;33.95;26.35;;;;;;;;;;5094628;28;20630;-61
2021/04/20 03:11:36;;;;;;;34.38;25.27;;;;;;;;;;5095291;28;20362;-61
2021/04/20 03:14:05;;;;;;;37.42;25.45;;;;;;;;;;5095758;28;20725;-61
2021/04/20 03:16:32;;;;;;;37.55;25.27;;;;;;;;;;5097038;28;20298;-61
2021/04/20 03:18:59;;;;;;;39.05;27.27;;;;;;;;;;5097636;28;20242;-61
2021/04/20 03:21:26;;;;;;;36.80;27.50;;;;;;;;;;5098620;28;20241;-61
2021/04/20 03:23:53;;;;;;;36.40;25.98;;;;;;;;;;5096826;28;20207;-61
2021/04/20 03:26:33;;;;;;;36.72;26.70;;;;;;;;;;5095097;28;20235;-60
2021/04/20 03:29:01;;;;;;;38.95;27.30;;;;;;;;;;5096076;28;20204;-60
2021/04/20 03:31:29;;;;;;;38.05;27.13;;;;;;;;;;5094696;28;20205;-61
2021/04/20 03:33:57;;;;;;;34.97;26.40;;;;;;;;;;5094431;28;20211;-61
2021/04/20 03:36:25;;;;;;;36.63;27.42;;;;;;;;;;5094057;28;20235;-61
2021/04/20 03:38:54;;;;;;;37.97;27.15;;;;;;;;;;5094157;28;20700;-61
2021/04/20 03:41:24;;;;;;;39.20;26.25;;;;;;;;;;5094033;28;20196;-61
2021/04/20 03:43:53;;;;;;;35.08;25.00;;;;;;;;;;5094214;28;20226;-62
2021/04/20 03:46:22;;;;;;;38.30;25.00;;;;;;;;;;5093823;28;20727;-61
2021/04/20 03:48:51;;;;;;;35.85;25.73;;;;;;;;;;5094060;28;20223;-61
2021/04/20 03:51:18;;;;;;;35.33;26.35;;;;;;;;;;5094228;28;20200;-61
2021/04/20 03:53:46;;;;;;;34.28;24.60;;;;;;;;;;5093972;28;20204;-61
2021/04/20 03:56:13;;;;;;;33.55;24.60;;;;;;;;;;5093549;28;20254;-61
2021/04/20 03:58:42;;;;;;;32.80;23.98;;;;;;;;;;5093270;28;20204;-61
2021/04/20 04:01:11;;;;;;;33.08;25.45;;;;;;;;;;5094802;28;20203;-61
2021/04/20 04:03:38;;;;;;;33.03;24.00;;;;;;;;;;5094592;28;20246;-60
2021/04/20 04:08:01;;;;;;;31.42;21.50;;;;;;;;;;5112100;27;20539;-60
2021/04/20 04:10:29;;;;;;;30.20;21.83;;;;;;;;;;5111682;28;20199;-61
2021/04/20 04:13:04;;;;;;;34.58;23.08;;;;;;;;;;5111169;28;20196;-62
2021/04/20 04:15:32;;;;;;;26.35;19.60;;;;;;;;;;5111190;28;20704;-61
2021/04/20 04:18:02;;;;;;;20.67;16.60;;;;;;;;;;5111246;28;20235;-61
2021/04/20 04:20:28;;;;;;;24.42;18.25;;;;;;;;;;5111575;28;20222;-61
2021/04/20 04:22:58;;;;;;;29.63;18.75;;;;;;;;;;5111316;28;20241;-60
2021/04/20 04:25:27;;;;;;;24.02;17.33;;;;;;;;;;5111266;28;20219;-60
2021/04/20 04:27:55;;;;;;;20.20;15.43;;;;;;;;;;5111304;28;20224;-62
2021/04/20 04:30:23;;;;;;;20.42;15.77;;;;;;;;;;5111231;28;20262;-61
2021/04/20 04:32:50;;;;;;;26.50;18.00;;;;;;;;;;5111054;28;20214;-61
2021/04/20 04:35:18;;;;;;;25.92;19.35;;;;;;;;;;5110879;28;20224;-61
2021/04/20 04:37:45;;;;;;;32.15;20.05;;;;;;;;;;5111130;28;20251;-61
2021/04/20 04:40:12;;;;;;;30.75;20.08;;;;;;;;;;5111054;28;20204;-61
2021/04/20 04:42:40;;;;;;;26.15;20.00;;;;;;;;;;5111079;28;20198;-62
2021/04/20 04:45:08;;;;;;;24.77;19.63;;;;;;;;;;5110908;28;20216;-61
2021/04/20 04:47:36;;;;;;;23.80;17.33;;;;;;;;;;5110968;28;20248;-61
2021/04/20 04:50:04;;;;;;;26.17;18.67;;;;;;;;;;5111596;28;20310;-61
2021/04/20 04:52:31;;;;;;;24.95;17.83;;;;;;;;;;5111161;28;20283;-61
2021/04/20 04:54:58;;;;;;;21.10;15.43;;;;;;;;;;5111390;28;20326;-62
2021/04/20 04:57:25;;;;;;;22.95;16.50;;;;;;;;;;5111400;28;20215;-61
2021/04/20 04:59:54;;;;;;;17.42;13.45;;;;;;;;;;5111394;28;20290;-62
2021/04/20 05:02:21;;;;;;;19.25;15.20;;;;;;;;;;5111355;28;20292;-64
2021/04/20 05:04:48;;;;;;;17.63;14.20;;;;;;;;;;5110769;28;20221;-61
2021/04/20 05:07:15;;;;;;;16.77;13.10;;;;;;;;;;5110408;28;20726;-61
2021/04/20 05:09:42;;;;;;;13.98;12.23;;;;;;;;;;5111082;28;20211;-61
2021/04/20 05:12:11;;;;;;;19.75;12.68;;;;;;;;;;5111735;28;20202;-61
2021/04/20 05:14:37;;;;;;;18.08;13.68;;;;;;;;;;5111500;28;20288;-62
2021/04/20 05:17:05;;;;;;;19.35;13.18;;;;;;;;;;5112542;28;20206;-61
2021/04/20 05:19:33;;;;;;;15.15;12.23;;;;;;;;;;5096731;28;20668;-61
2021/04/20 05:22:01;;;;;;;16.02;12.45;;;;;;;;;;5098898;28;20198;-62
2021/04/20 05:24:28;;;;;;;15.07;12.35;;;;;;;;;;5101496;28;20202;-60
2021/04/20 05:26:55;;;;;;;15.52;11.57;;;;;;;;;;5101904;28;20222;-61
2021/04/20 05:29:22;;;;;;;17.55;12.50;;;;;;;;;;5098316;28;20205;-62
2021/04/20 05:31:50;;;;;;;15.40;11.32;;;;;;;;;;5097764;28;20678;-60
2021/04/20 05:34:19;;;;;;;20.08;12.52;;;;;;;;;;5105527;28;20203;-61
2021/04/20 05:36:47;;;;;;;21.08;12.98;;;;;;;;;;5106516;28;20224;-61
2021/04/20 05:39:14;;;;;;;12.75;10.95;;;;;;;;;;5107258;28;20554;-61
2021/04/20 05:41:41;;;;;;;14.73;11.65;;;;;;;;;;5108589;28;20666;-61
2021/04/20 05:44:09;;;;;;;18.13;12.80;;;;;;;;;;5104929;28;20621;-61
2021/04/20 05:46:36;;;;;;;17.08;14.07;;;;;;;;;;5108254;28;20222;-62
2021/04/20 05:49:04;;;;;;;16.73;13.50;;;;;;;;;;5105135;28;20213;-61
2021/04/20 05:51:32;;;;;;;19.23;14.80;;;;;;;;;;5096818;28;20669;-61
2021/04/20 05:53:59;;;;;;;17.05;13.55;;;;;;;;;;5099120;28;20428;-60
2021/04/20 05:56:25;;;;;;;20.70;15.07;;;;;;;;;;5096188;28;20537;-61
2021/04/20 05:58:53;;;;;;;19.65;16.08;;;;;;;;;;5096145;28;20207;-61
2021/04/20 06:01:20;;;;;;;19.90;15.02;;;;;;;;;;5095976;28;20259;-60
2021/04/20 06:03:47;;;;;;;15.98;13.27;;;;;;;;;;5095978;28;20220;-60
2021/04/20 06:06:15;;;;;;;15.93;12.37;;;;;;;;;;5094734;28;20531;-61
2021/04/20 06:08:43;;;;;;;15.60;11.57;;;;;;;;;;5095983;28;20804;-59
2021/04/20 06:11:11;;;;;;;14.15;11.02;;;;;;;;;;5096044;28;20198;-62
2021/04/20 06:13:38;;;;;;;13.48;10.80;;;;;;;;;;5095832;28;20203;-62
2021/04/20 06:16:05;;;;;;;14.25;9.43;;;;;;;;;;5095656;28;20222;-63
2021/04/20 06:18:32;;;;;;;12.25;9.15;;;;;;;;;;5094691;28;20424;-63
2021/04/20 06:21:00;;;;;;;13.05;9.10;;;;;;;;;;5095431;28;20200;-61
2021/04/20 06:23:27;;;;;;;9.63;7.85;;;;;;;;;;5095409;28;20209;-62
2021/04/20 06:25:58;;;;;;;14.05;7.05;;;;;;;;;;5095615;28;20228;-61
2021/04/20 06:28:25;;;;;;;11.02;7.40;;;;;;;;;;5095606;28;20243;-62
2021/04/20 06:30:52;;;;;;;9.10;6.75;;;;;;;;;;5093766;28;20206;-61
2021/04/20 06:33:20;;;;;;;11.60;7.28;;;;;;;;;;5094982;28;20202;-60
2021/04/20 06:35:47;;;;;;;15.13;9.68;;;;;;;;;;5095223;28;20249;-61
2021/04/20 06:38:15;;;;;;;15.20;8.25;;;;;;;;;;5094935;28;20264;-60
2021/04/20 06:40:42;;;;;;;14.23;9.35;;;;;;;;;;5094567;28;20664;-60
2021/04/20 06:43:11;;;;;;;12.35;8.52;;;;;;;;;;5095090;28;20624;-61
2021/04/20 06:45:42;;;;;;;13.00;9.27;;;;;;;;;;5095054;28;20291;-60
2021/04/20 06:48:14;;;;;;;13.10;8.55;;;;;;;;;;5095410;28;20211;-61
2021/04/20 06:50:40;;;;;;;13.45;10.30;;;;;;;;;;5095240;28;20225;-61
2021/04/20 06:53:09;;;;;;;9.52;8.40;;;;;;;;;;5095251;28;20207;-62
2021/04/20 06:55:42;;;;;;;10.77;8.40;;;;;;;;;;5094632;28;20222;-60
2021/04/20 06:58:13;;;;;;;11.07;8.87;;;;;;;;;;5094933;28;20422;-60
2021/04/20 07:00:42;;;;;;;14.18;9.80;;;;;;;;;;5094945;28;20870;-61
2021/04/20 07:03:15;;;;;;;11.43;10.20;;;;;;;;;;5094486;28;20267;-61
2021/04/20 07:05:45;;;;;;;13.63;9.70;;;;;;;;;;5094259;28;20443;-59
2021/04/20 07:08:16;;;;;;;13.43;8.00;;;;;;;;;;5095323;28;20206;-62
2021/04/20 07:10:43;;;;;;;13.23;8.52;;;;;;;;;;5095143;28;20553;-62
2021/04/20 07:13:12;;;;;;;7.93;7.00;;;;;;;;;;5094978;28;20203;-61
2021/04/20 07:15:39;;;;;;;12.60;8.30;;;;;;;;;;5094866;28;20468;-62
2021/04/20 07:18:19;;;;;;;10.38;8.70;;;;;;;;;;5094374;28;20444;-61
2021/04/20 07:20:51;;;;;;;14.13;10.50;;;;;;;;;;5094815;28;20197;-60
2021/04/20 07:23:27;;;;;;;13.00;9.97;;;;;;;;;;5094371;28;20521;-61
2021/04/20 07:26:00;;;;;;;13.90;10.40;;;;;;;;;;5094849;28;20464;-61
2021/04/20 07:28:32;;;;;;;11.50;9.20;;;;;;;;;;5095162;28;20425;-60
2021/04/20 07:31:09;;;;;;;17.60;10.07;;;;;;;;;;5094248;28;20444;-62
2021/04/20 07:33:46;;;;;;;12.60;8.80;;;;;;;;;;5093896;28;20440;-61
2021/04/20 07:36:15;;;;;;;9.60;7.50;;;;;;;;;;5093699;28;20510;-59
2021/04/20 07:38:48;;;;;;;7.83;6.63;;;;;;;;;;5093894;28;20822;-60
2021/04/20 07:41:20;;;;;;;13.37;7.40;;;;;;;;;;5093559;28;20913;-59
2021/04/20 07:43:58;;;;;;;9.03;7.90;;;;;;;;;;5093827;28;20432;-62
2021/04/20 07:46:27;;;;;;;10.43;8.07;;;;;;;;;;5099807;28;20571;-58
2021/04/20 07:48:56;;;;;;;10.90;8.10;;;;;;;;;;5100230;28;20431;-60
2021/04/20 07:51:27;;;;;;;13.10;8.47;;;;;;;;;;5104461;28;20495;-60
2021/04/20 07:54:00;;;;;;;7.90;6.83;;;;;;;;;;5101905;28;20428;-61
2021/04/20 07:56:29;;;;;;;9.07;7.73;;;;;;;;;;5102575;28;20467;-59
2021/04/20 07:58:58;;;;;;;10.33;7.23;;;;;;;;;;5101788;28;20444;-61
2021/04/20 08:01:31;;;;;;;11.03;6.17;;;;;;;;;;5093738;28;20450;-61
2021/04/20 08:04:05;;;;;;;7.83;6.50;;;;;;;;;;5093841;28;20426;-60
2021/04/20 08:06:33;;;;;;;9.47;6.73;;;;;;;;;;5093180;28;20541;-60
2021/04/20 08:09:03;;;;;;;10.90;6.30;;;;;;;;;;5093670;28;20449;-61
2021/04/20 08:11:30;;;;;;;6.43;5.73;;;;;;;;;;5093256;28;20451;-61
2021/04/20 08:14:03;;;;;;;8.70;7.03;;;;;;;;;;5093391;28;20974;-60
2021/04/20 08:16:32;;;;;;;10.50;7.60;;;;;;;;;;5093924;28;20513;-60
2021/04/20 08:19:00;;;;;;;12.67;8.70;;;;;;;;;;5093924;28;20969;-60
2021/04/20 08:21:29;;;;;;;8.97;7.63;;;;;;;;;;5093740;28;20444;-59
2021/04/20 08:23:57;;;;;;;8.37;6.80;;;;;;;;;;5093248;28;20536;-58
2021/04/20 08:26:26;;;;;;;8.97;6.50;;;;;;;;;;5093296;28;20894;-61
2021/04/20 08:28:57;;;;;;;8.93;7.00;;;;;;;;;;5093438;28;20911;-60
2021/04/20 08:31:33;;;;;;;15.20;8.73;;;;;;;;;;5094216;28;20436;-61
2021/04/20 08:34:05;;;;;;;11.90;6.60;;;;;;;;;;5094186;28;20433;-59
2021/04/20 08:36:37;;;;;;;7.40;6.60;;;;;;;;;;5093872;28;20473;-60
2021/04/20 08:39:05;;;;;;;10.57;6.90;;;;;;;;;;5093248;28;20436;-60
2021/04/20 08:41:34;;;;;;;12.63;7.40;;;;;;;;;;5093028;28;21014;-58
2021/04/20 08:44:10;;;;;;;8.93;7.33;;;;;;;;;;5093190;28;20441;-59
2021/04/20 08:46:43;;;;;;;14.10;7.37;;;;;;;;;;5093396;28;20988;-59
2021/04/20 08:49:13;;;;;;;8.23;6.10;;;;;;;;;;5094096;28;20430;-58
2021/04/20 08:51:44;;;;;;;11.10;7.83;;;;;;;;;;5094323;28;20508;-59
2021/04/20 08:54:18;;;;;;;9.63;7.57;;;;;;;;;;5099808;28;20430;-60
2021/04/20 08:56:47;;;;;;;10.50;7.80;;;;;;;;;;5098868;28;20455;-59
2021/04/20 08:59:44;;;;;;;8.47;6.03;;;;;;;;;;5097106;28;20480;-59
2021/04/20 09:02:30;;;;;;;9.47;6.60;;;;;;;;;;5034931;28;20419;-60
2021/04/20 09:05:04;;;;;;;8.73;6.60;;;;;;;;;;5090529;28;20479;-60
2021/04/20 09:07:34;;;;;;;10.27;7.53;;;;;;;;;;5096755;28;20487;-59
2021/04/20 09:10:04;;;;;;;8.70;6.73;;;;;;;;;;5096823;28;20425;-60
2021/04/20 09:12:31;;;;;;;9.00;6.67;;;;;;;;;;5096326;28;20443;-58
2021/04/20 09:15:01;;;;;;;8.23;6.40;;;;;;;;;;5096326;28;20832;-60
2021/04/20 09:17:30;;;;;;;8.00;6.20;;;;;;;;;;5096467;28;20441;-59
2021/04/20 09:19:58;;;;;;;10.20;6.70;;;;;;;;;;5096044;28;20505;-60
2021/04/20 09:22:28;;;;;;;8.50;6.43;;;;;;;;;;5096046;28;20443;-59
2021/04/20 09:24:57;;;;;;;9.03;6.63;;;;;;;;;;5096970;28;20464;-59
2021/04/20 09:27:28;;;;;;;10.70;7.40;;;;;;;;;;5096596;28;20858;-60
2021/04/20 09:29:56;;;;;;;15.10;6.77;;;;;;;;;;5096232;28;20540;-59
2021/04/20 09:32:24;;;;;;;8.93;6.73;;;;;;;;;;5096455;28;20463;-59
2021/04/20 09:34:54;;;;;;;12.33;7.80;;;;;;;;;;5097201;28;20476;-60
2021/04/20 09:37:22;;;;;;;9.00;7.20;;;;;;;;;;5096634;28;20437;-60
2021/04/20 09:39:50;;;;;;;10.57;7.83;;;;;;;;;;5096821;28;20519;-60
2021/04/20 09:42:18;;;;;;;9.80;6.80;;;;;;;;;;5096731;28;20444;-59
2021/04/20 09:44:47;;;;;;;12.43;7.70;;;;;;;;;;5096415;28;20501;-60
2021/04/20 09:47:27;;;;;;;11.50;7.60;;;;;;;;;;5096969;28;20480;-60
2021/04/20 09:50:03;;;;;;;11.73;6.50;;;;;;;;;;5096330;28;20429;-60
2021/04/20 09:52:33;;;;;;;8.40;7.50;;;;;;;;;;5096564;28;20427;-59
2021/04/20 09:55:04;;;;;;;9.60;6.30;;;;;;;;;;5098907;28;20472;-60
2021/04/20 09:57:33;;;;;;;9.20;7.50;;;;;;;;;;5101519;28;20438;-59
2021/04/20 10:00:03;;;;;;;15.00;6.90;;;;;;;;;;5103548;28;20521;-59
2021/04/20 10:02:39;;;;;;;11.07;6.33;;;;;;;;;;5102238;28;20824;-59
2021/04/20 10:05:10;;;;;;;7.27;6.47;;;;;;;;;;5103142;28;20474;-59
2021/04/20 10:07:52;;;;;;;9.60;7.47;;;;;;;;;;5101403;28;20992;-59
2021/04/20 10:10:23;;;;;;;8.83;6.23;;;;;;;;;;5100609;28;20781;-59
2021/04/20 10:12:58;;;;;;;8.10;6.60;;;;;;;;;;5101967;28;20427;-60
2021/04/20 10:15:27;;;;;;;11.83;6.83;;;;;;;;;;5100783;28;20465;-59
2021/04/20 10:18:00;;;;;;;7.77;6.20;;;;;;;;;;5100427;28;20453;-59
2021/04/20 10:20:34;;;;;;;10.00;7.10;;;;;;;;;;5102594;28;20516;-59
2021/04/20 10:23:05;;;;;;;8.50;6.80;;;;;;;;;;5103892;28;20490;-59
2021/04/20 10:25:35;;;;;;;9.43;6.40;;;;;;;;;;5104691;28;20977;-60
2021/04/20 10:28:06;;;;;;;11.30;6.40;;;;;;;;;;5103490;28;20471;-60
2021/04/20 10:30:36;;;;;;;8.13;6.17;;;;;;;;;;5100485;28;20427;-60
2021/04/20 10:33:03;;;;;;;9.40;5.90;;;;;;;;;;5101749;28;20458;-60
2021/04/20 10:35:33;;;;;;;10.20;6.40;;;;;;;;;;5099525;28;20472;-59
2021/04/20 10:38:00;;;;;;;11.10;6.37;;;;;;;;;;5097460;28;20448;-60
2021/04/20 10:40:30;;;;;;;10.40;6.77;;;;;;;;;;5095933;28;20442;-60
2021/04/20 10:42:57;;;;;;;10.20;5.73;;;;;;;;;;5095565;28;20446;-60
2021/04/20 10:45:28;;;;;;;7.93;6.20;;;;;;;;;;5095169;28;20472;-60
2021/04/20 10:47:55;;;;;;;9.73;7.23;;;;;;;;;;5095201;28;20466;-61
2021/04/20 10:50:23;;;;;;;6.97;5.90;;;;;;;;;;5095362;28;20450;-60
2021/04/20 10:52:54;;;;;;;8.63;7.10;;;;;;;;;;5095021;28;20831;-60
2021/04/20 10:55:25;;;;;;;12.00;6.30;;;;;;;;;;5094828;28;20969;-58
2021/04/20 10:57:53;;;;;;;11.63;7.30;;;;;;;;;;5095760;28;20426;-61
2021/04/20 11:00:20;;;;;;;10.57;6.63;;;;;;;;;;5096359;28;20476;-61
2021/04/20 11:02:49;;;;;;;8.70;5.93;;;;;;;;;;5097076;28;20445;-60
2021/04/20 11:05:16;;;;;;;8.77;6.30;;;;;;;;;;5094721;28;20463;-59
2021/04/20 11:07:43;;;;;;;10.00;6.23;;;;;;;;;;5094608;28;20916;-61
2021/04/20 11:10:12;;;;;;;8.37;5.50;;;;;;;;;;5094877;28;20851;-60
2021/04/20 11:12:43;;;;;;;13.50;6.43;;;;;;;;;;5094538;28;20450;-60
2021/04/20 11:15:10;;;;;;;10.60;6.77;;;;;;;;;;5094516;28;20462;-60
2021/04/20 11:17:45;;;;;;;7.20;5.53;;;;;;;;;;5094414;28;20856;-60
2021/04/20 11:20:13;;;;;;;11.97;6.53;;;;;;;;;;5094110;28;20432;-60
2021/04/20 11:22:42;;;;;;;10.40;6.63;;;;;;;;;;5094826;28;20443;-60
2021/04/20 11:25:20;;;;;;;9.20;6.33;;;;;;;;;;5096859;28;20468;-60
2021/04/20 11:27:50;;;;;;;6.43;4.90;;;;;;;;;;5096266;28;20466;-60
2021/04/20 11:30:17;;;;;;;9.23;5.80;;;;;;;;;;5094635;28;20447;-60
2021/04/20 11:32:48;;;;;;;8.47;6.33;;;;;;;;;;5094192;28;20505;-60
2021/04/20 11:35:17;;;;;;;9.93;5.67;;;;;;;;;;5094249;28;20463;-60
2021/04/20 11:37:45;;;;;;;9.73;5.73;;;;;;;;;;5094273;28;20516;-60
2021/04/20 11:40:16;;;;;;;7.10;5.83;;;;;;;;;;5093983;28;20943;-61
2021/04/20 11:42:45;;;;;;;8.60;5.90;;;;;;;;;;5094531;28;20863;-61
2021/04/20 11:45:13;;;;;;;9.23;5.63;;;;;;;;;;5094199;28;20619;-60
2021/04/20 11:47:49;;;;;;;6.30;5.70;;;;;;;;;;5094332;28;20560;-61
2021/04/20 11:50:17;;;;;;;9.73;5.93;;;;;;;;;;5094693;28;20837;-59
2021/04/20 11:52:44;;;;;;;8.10;6.10;;;;;;;;;;5093771;28;20473;-61
2021/04/20 11:55:14;;;;;;;7.27;5.97;;;;;;;;;;5093974;28;20467;-60
2021/04/20 11:57:42;;;;;;;8.37;5.93;;;;;;;;;;5094013;28;20447;-61
2021/04/20 12:00:10;;;;;;;9.30;6.10;;;;;;;;;;5094014;28;20447;-61
2021/04/20 12:02:38;;;;;;;9.03;5.80;;;;;;;;;;5094212;28;20488;-60
2021/04/20 12:05:06;;;;;;;18.50;7.50;;;;;;;;;;5094077;28;20875;-60
2021/04/20 12:07:34;;;;;;;8.97;6.53;;;;;;;;;;5093644;28;20483;-60
2021/04/20 12:10:01;;;;;;;13.93;6.63;;;;;;;;;;5094241;28;20531;-61
2021/04/20 12:12:28;;;;;;;7.70;5.47;;;;;;;;;;5095549;28;20501;-59
2021/04/20 12:14:56;;;;;;;7.50;5.77;;;;;;;;;;5094607;28;20563;-60
2021/04/20 12:17:30;;;;;;;8.33;5.70;;;;;;;;;;5095168;28;20440;-60
2021/04/20 12:19:59;;;;;;;10.50;7.70;;;;;;;;;;5095584;28;20972;-61
2021/04/20 12:22:27;;;;;;;10.20;6.90;;;;;;;;;;5096118;28;20444;-60
2021/04/20 12:24:54;;;;;;;7.47;6.03;;;;;;;;;;5095759;28;20473;-61
2021/04/20 12:27:25;;;;;;;7.70;6.90;;;;;;;;;;5094722;28;20480;-60
2021/04/20 12:29:52;;;;;;;6.97;6.27;;;;;;;;;;5099037;28;20452;-60
2021/04/20 12:32:21;;;;;;;10.07;6.77;;;;;;;;;;5098948;28;21003;-60
2021/04/20 12:34:53;;;;;;;9.83;6.30;;;;;;;;;;5098945;28;20886;-60
2021/04/20 12:37:22;;;;;;;8.33;6.93;;;;;;;;;;5098031;28;20459;-61
2021/04/20 12:39:53;;;;;;;8.33;6.37;;;;;;;;;;5098063;28;20456;-61
2021/04/20 12:42:21;;;;;;;7.83;6.40;;;;;;;;;;5097471;28;20432;-60
2021/04/20 12:44:51;;;;;;;8.97;6.70;;;;;;;;;;5097716;28;20488;-60
2021/04/20 12:47:18;;;;;;;8.03;6.33;;;;;;;;;;5097415;28;21035;-60
2021/04/20 12:49:47;;;;;;;9.90;5.67;;;;;;;;;;5096738;28;20878;-60
2021/04/20 12:52:17;;;;;;;16.40;6.33;;;;;;;;;;5097106;28;20439;-60
2021/04/20 12:54:46;;;;;;;7.70;4.87;;;;;;;;;;5096977;28;20525;-59
2021/04/20 12:57:15;;;;;;;5.80;4.63;;;;;;;;;;5096842;28;20542;-60
2021/04/20 12:59:44;;;;;;;7.87;4.57;;;;;;;;;;5097488;28;20449;-60
2021/04/20 13:02:12;;;;;;;23.80;7.00;;;;;;;;;;5097813;28;20495;-60
2021/04/20 13:04:39;;;;;;;5.30;4.50;;;;;;;;;;5096840;28;20443;-60
2021/04/20 13:07:08;;;;;;;6.40;4.67;;;;;;;;;;5096924;28;21071;-60
2021/04/20 13:09:36;;;;;;;10.00;4.67;;;;;;;;;;5097325;28;20493;-59
2021/04/20 13:12:05;;;;;;;5.20;4.73;;;;;;;;;;5096599;28;20981;-61
2021/04/20 13:14:33;;;;;;;7.63;6.07;;;;;;;;;;5097125;28;20465;-59
2021/04/20 13:17:01;;;;;;;7.53;5.20;;;;;;;;;;5096969;28;20444;-60
2021/04/20 13:19:30;;;;;;;8.03;5.70;;;;;;;;;;5096795;28;20447;-60
2021/04/20 13:21:58;;;;;;;6.57;5.60;;;;;;;;;;5096386;28;20955;-60
2021/04/20 13:24:26;;;;;;;10.40;5.43;;;;;;;;;;5096497;28;20444;-60
2021/04/20 13:26:56;;;;;;;9.83;4.70;;;;;;;;;;5096040;28;20476;-61
2021/04/20 13:29:26;;;;;;;8.67;5.50;;;;;;;;;;5097504;28;20481;-59
2021/04/20 13:31:54;;;;;;;10.50;5.30;;;;;;;;;;5101716;28;20437;-60
2021/04/20 13:34:25;;;;;;;12.57;6.13;;;;;;;;;;5104792;28;20450;-59
2021/04/20 13:36:53;;;;;;;9.53;5.60;;;;;;;;;;5108678;28;20444;-60
2021/04/20 13:39:24;;;;;;;5.57;4.70;;;;;;;;;;5105307;28;20504;-60
2021/04/20 13:41:53;;;;;;;13.00;5.73;;;;;;;;;;5096536;28;20447;-60
2021/04/20 13:44:25;;;;;;;27.33;6.07;;;;;;;;;;5095752;28;20955;-59
2021/04/20 13:46:52;;;;;;;9.00;5.53;;;;;;;;;;5095621;28;20486;-60
2021/04/20 13:49:19;;;;;;;11.73;5.27;;;;;;;;;;5096011;28;20473;-59
2021/04/20 13:51:51;;;;;;;8.90;4.47;;;;;;;;;;5096078;28;20448;-61
2021/04/20 13:54:24;;;;;;;9.07;5.40;;;;;;;;;;5096025;28;20461;-58
2021/04/20 13:56:51;;;;;;;8.83;4.90;;;;;;;;;;5095869;28;20816;-60
2021/04/20 13:59:18;;;;;;;6.50;4.17;;;;;;;;;;5095891;28;20849;-60
2021/04/20 14:01:48;;;;;;;5.50;4.27;;;;;;;;;;5096312;28;20443;-59
2021/04/20 14:04:20;;;;;;;7.70;4.73;;;;;;;;;;5095521;28;20470;-60
2021/04/20 14:06:48;;;;;;;8.70;4.67;;;;;;;;;;5095446;28;20473;-60
2021/04/20 14:09:20;;;;;;;7.90;4.27;;;;;;;;;;5095617;28;20459;-60
2021/04/20 14:11:48;;;;;;;9.47;4.63;;;;;;;;;;5095813;28;20449;-60
2021/04/20 14:14:21;;;;;;;5.37;4.30;;;;;;;;;;5095502;28;20443;-59
2021/04/20 14:16:50;;;;;;;3.77;3.33;;;;;;;;;;5096268;28;20835;-60
2021/04/20 14:19:21;;;;;;;6.50;3.80;;;;;;;;;;5096327;28;20441;-60
2021/04/20 14:21:48;;;;;;;3.93;3.43;;;;;;;;;;5096705;28;20439;-60
2021/04/20 14:24:15;;;;;;;6.13;3.40;;;;;;;;;;5096039;28;20451;-60
2021/04/20 14:26:46;;;;;;;6.30;3.80;;;;;;;;;;5095599;28;20468;-59
2021/04/20 14:29:13;;;;;;;5.80;3.47;;;;;;;;;;5095925;28;20450;-60
2021/04/20 14:31:41;;;;;;;6.50;4.60;;;;;;;;;;5095509;28;20931;-60
2021/04/20 14:34:09;;;;;;;8.20;5.10;;;;;;;;;;5095150;28;20820;-60
2021/04/20 14:36:37;;;;;;;7.30;4.30;;;;;;;;;;5095490;28;20457;-59
2021/04/20 14:39:08;;;;;;;25.47;5.73;;;;;;;;;;5095091;28;20456;-59
2021/04/20 14:41:36;;;;;;;5.23;3.93;;;;;;;;;;5094376;28;20936;-61